Terminal Aerodrome Forecast
Issued by NWS

Home | Current Version | Previous Version | Text Only | Print | Product List | Glossary On
Versions: 1 2 3 4 5 6 7 8 9 10 11 12 13 14 15 16 17
327
FTUS41 KBGM 200836 AAA
TAFELM
TAF AMD
KELM 200836Z 2009/2106 14004KT P6SM OVC025
     FM201400 14004KT P6SM BKN035
     FM202000 17007KT 5SM -RA OVC015
     FM210000 19005KT 4SM BR OVC015=

USA.gov is the U.S. government's official web portal to all federal, state and local government web resources and services.